Time;durP1;ratioP1;P1;durP2;ratioP2;P2;SDS_P1;SDS_P2;PMS_P1;PMS_P2;Temp;Humidity;BMP_temperature;BMP_pressure;BME280_temperature;BME280_humidity;BME280_pressure;Samples;Min_cycle;Max_cycle;Signal;HPM_P1;HPM_P2
2022/01/28 00:04:47;;;;;;;2.63;1.08;;;5.50;99.90;;;;;;5045809;28;20040;-64
2022/01/28 00:07:13;;;;;;;2.90;1.65;;;5.40;99.90;;;;;;5044848;28;20116;-64
2022/01/28 00:09:38;;;;;;;3.40;1.38;;;5.40;99.90;;;;;;5043521;28;20108;-64
2022/01/28 00:12:07;;;;;;;0.65;0.65;;;5.40;99.90;;;;;;5044726;28;20037;-64
2022/01/28 00:15:06;;;;;;;6.60;1.65;;;5.50;99.90;;;;;;5038482;28;20136;-64
2022/01/28 00:38:56;;;;;;;2.10;1.10;;;5.50;99.90;;;;;;5042697;28;20025;-65
2022/01/28 00:41:22;;;;;;;4.00;1.20;;;5.50;99.90;;;;;;5044067;28;20394;-64
2022/01/28 00:43:48;;;;;;;1.10;0.70;;;5.60;99.90;;;;;;5038614;28;20516;-64
2022/01/28 00:46:14;;;;;;;0.60;0.60;;;5.50;99.90;;;;;;5031003;28;20029;-64
2022/01/28 00:48:40;;;;;;;2.65;1.02;;;5.50;99.90;;;;;;5031755;28;20025;-64
2022/01/28 00:51:06;;;;;;;6.03;1.42;;;5.50;99.90;;;;;;5030697;28;20458;-64
2022/01/28 00:53:31;;;;;;;1.17;0.93;;;5.30;99.90;;;;;;5030028;28;20025;-64
2022/01/28 00:55:57;;;;;;;2.20;1.15;;;5.30;99.90;;;;;;5031030;28;20528;-64
2022/01/28 00:58:24;;;;;;;1.33;0.80;;;5.20;99.90;;;;;;5030859;28;20016;-64
2022/01/28 01:00:50;;;;;;;1.98;1.58;;;5.20;99.90;;;;;;5031272;28;20484;-65
2022/01/28 01:03:16;;;;;;;1.92;1.00;;;5.10;99.90;;;;;;5030810;28;20037;-64
2022/01/28 01:05:41;;;;;;;1.13;1.00;;;4.80;99.90;;;;;;5031982;28;20092;-64
2022/01/28 01:08:07;;;;;;;4.70;1.42;;;4.60;99.90;;;;;;5026653;28;20025;-64
2022/01/28 01:10:33;;;;;;;0.82;0.82;;;4.50;99.90;;;;;;5030948;28;20025;-64
2022/01/28 01:13:00;;;;;;;1.85;1.02;;;4.50;99.90;;;;;;5031039;28;20040;-64
2022/01/28 01:15:31;;;;;;;2.33;1.52;;;4.50;99.90;;;;;;5026841;28;20041;-64
2022/01/28 01:18:17;;;;;;;4.55;1.30;;;4.60;99.90;;;;;;5031347;28;20044;-64
2022/01/28 01:23:21;;;;;;;6.53;2.17;;;4.70;99.90;;;;;;5030894;28;20056;-64
2022/01/28 01:28:31;;;;;;;0.70;0.70;;;4.70;99.90;;;;;;5028892;28;20049;-64
2022/01/28 01:30:59;;;;;;;0.70;0.70;;;4.80;99.90;;;;;;5030316;28;20025;-64
2022/01/28 01:33:26;;;;;;;5.25;1.00;;;4.70;99.90;;;;;;5028358;28;20593;-64
2022/01/28 01:35:51;;;;;;;0.70;0.70;;;4.70;99.90;;;;;;5030352;28;20020;-64
2022/01/28 01:38:17;;;;;;;13.55;0.90;;;4.70;99.90;;;;;;5028257;28;20019;-64
2022/01/28 01:40:52;;;;;;;2.92;1.17;;;4.70;99.90;;;;;;5026864;28;20131;-64
2022/01/28 01:53:46;;;;;;;3.35;1.15;;;4.80;99.90;;;;;;5027107;28;20478;-64
2022/01/28 01:56:13;;;;;;;5.30;1.08;;;4.80;99.90;;;;;;5028088;28;20021;-64
2022/01/28 01:58:40;;;;;;;22.30;1.17;;;4.80;99.90;;;;;;5022963;28;20026;-64
2022/01/28 02:01:06;;;;;;;3.92;2.00;;;4.80;99.90;;;;;;5029488;28;20552;-64
2022/01/28 02:03:31;;;;;;;2.42;0.95;;;4.70;99.90;;;;;;5028640;28;20035;-64
2022/01/28 02:05:59;;;;;;;2.72;1.23;;;4.70;99.90;;;;;;5029770;28;20033;-64
2022/01/28 02:08:30;;;;;;;5.22;1.77;;;4.70;99.90;;;;;;5019938;28;20033;-64
2022/01/28 02:10:58;;;;;;;5.78;1.50;;;4.80;99.90;;;;;;5029725;28;20067;-64
2022/01/28 02:13:25;;;;;;;3.95;1.45;;;4.80;99.90;;;;;;5029039;28;20029;-64
2022/01/28 02:15:52;;;;;;;0.65;0.65;;;4.80;99.90;;;;;;5031249;28;20444;-64
2022/01/28 02:18:17;;;;;;;3.45;0.90;;;4.80;99.90;;;;;;5035794;28;20501;-64
2022/01/28 02:20:48;;;;;;;9.43;1.60;;;4.80;99.90;;;;;;5033523;28;20048;-64
2022/01/28 02:23:13;;;;;;;;;;;4.80;99.90;;;;;;5030867;28;20474;-64
2022/01/28 02:25:39;;;;;;;4.45;1.33;;;4.80;99.90;;;;;;5029208;28;19915;-64
2022/01/28 02:28:07;;;;;;;5.72;1.58;;;4.80;99.90;;;;;;5029507;28;20025;-64
2022/01/28 02:30:34;;;;;;;10.95;1.55;;;4.80;99.90;;;;;;5029216;28;20028;-64
2022/01/28 02:33:11;;;;;;;13.48;2.28;;;4.90;99.90;;;;;;5029697;28;20050;-64
2022/01/28 02:35:38;;;;;;;7.82;1.25;;;4.90;99.90;;;;;;5026550;28;20018;-64
2022/01/28 02:38:04;;;;;;;3.63;1.67;;;4.80;99.90;;;;;;5026475;28;20555;-65
2022/01/28 02:40:30;;;;;;;10.57;2.30;;;4.80;99.90;;;;;;5027481;28;20057;-65
2022/01/28 02:43:17;;;;;;;2.50;1.05;;;4.80;99.90;;;;;;5028720;28;20392;-65
2022/01/28 02:45:44;;;;;;;12.05;1.40;;;4.80;99.90;;;;;;5026454;28;20036;-65
2022/01/28 02:48:18;;;;;;;4.18;1.08;;;4.80;99.90;;;;;;5027998;28;20040;-65
2022/01/28 02:51:03;;;;;;;5.30;1.48;;;4.80;99.90;;;;;;5025519;28;20025;-65
2022/01/28 02:53:41;;;;;;;5.20;1.30;;;4.90;99.90;;;;;;5028338;28;20457;-65
2022/01/28 02:56:55;;;;;;;0.60;0.60;;;4.80;99.90;;;;;;5028627;28;20020;-65
2022/01/28 02:58:58;;;;;;;8.45;1.92;;;4.80;99.90;;;;;;5029126;28;20492;-65
2022/01/28 03:01:25;;;;;;;1.20;1.10;;;4.70;99.90;;;;;;5027771;28;20093;-65
2022/01/28 03:03:54;;;;;;;19.65;1.70;;;4.70;99.90;;;;;;5028381;28;20056;-65
2022/01/28 03:06:20;;;;;;;4.25;1.38;;;4.60;99.90;;;;;;5024359;28;20103;-65
2022/01/28 03:08:56;;;;;;;1.95;1.08;;;4.60;99.90;;;;;;5026898;28;20022;-65
2022/01/28 03:16:57;;;;;;;2.50;1.50;;;4.40;99.90;;;;;;5024697;28;20032;-65
2022/01/28 03:19:26;;;;;;;12.45;1.50;;;4.40;99.90;;;;;;5022268;28;20028;-65
2022/01/28 03:21:56;;;;;;;4.03;1.45;;;4.30;99.90;;;;;;5027921;28;20025;-65
2022/01/28 03:24:26;;;;;;;0.80;0.80;;;4.40;99.90;;;;;;5024151;28;20014;-65
2022/01/28 03:26:58;;;;;;;7.57;2.30;;;4.40;99.90;;;;;;5024956;28;20402;-65
2022/01/28 03:29:24;;;;;;;7.43;1.48;;;4.40;99.90;;;;;;5028249;28;20040;-65
2022/01/28 03:31:50;;;;;;;1.13;1.02;;;4.50;99.90;;;;;;5027471;28;20508;-65
2022/01/28 03:34:15;;;;;;;7.45;2.65;;;4.60;99.90;;;;;;5028082;28;20314;-65
2022/01/28 03:36:41;;;;;;;8.27;1.85;;;4.50;99.90;;;;;;5023738;28;20032;-65
2022/01/28 03:39:09;;;;;;;1.33;0.90;;;4.60;99.90;;;;;;5026299;28;20429;-65
2022/01/28 03:41:35;;;;;;;1.25;1.02;;;4.60;99.90;;;;;;5027709;28;20032;-65
2022/01/28 03:44:01;;;;;;;1.05;0.95;;;4.60;99.90;;;;;;5025890;28;20425;-65
2022/01/28 03:46:28;;;;;;;2.72;1.30;;;4.60;99.90;;;;;;5027970;28;20018;-65
2022/01/28 03:48:55;;;;;;;3.97;1.23;;;4.60;99.90;;;;;;5023915;28;20478;-65
2022/01/28 03:51:21;;;;;;;2.10;1.20;;;4.60;99.90;;;;;;5027656;28;20345;-65
2022/01/28 03:53:47;;;;;;;6.35;1.27;;;4.60;99.90;;;;;;5024800;28;20087;-65
2022/01/28 03:56:13;;;;;;;3.65;1.45;;;4.50;99.90;;;;;;5025204;28;20013;-65
2022/01/28 03:58:39;;;;;;;5.00;2.00;;;4.30;99.90;;;;;;5027628;28;20033;-65
2022/01/28 04:01:12;;;;;;;5.45;1.77;;;4.20;99.90;;;;;;5027285;28;20071;-65
2022/01/28 04:03:43;;;;;;;1.65;1.00;;;4.20;99.90;;;;;;5026519;28;20029;-65
2022/01/28 04:11:39;;;;;;;3.22;1.13;;;4.30;99.90;;;;;;5027468;28;20090;-65
2022/01/28 04:14:17;;;;;;;1.67;1.15;;;4.30;99.90;;;;;;5028749;28;20489;-65
2022/01/28 04:19:26;;;;;;;4.03;1.48;;;4.30;99.90;;;;;;5026232;28;20028;-65
2022/01/28 04:21:52;;;;;;;4.28;0.80;;;4.30;99.90;;;;;;5031738;28;20195;-65
2022/01/28 04:24:18;;;;;;;8.85;1.17;;;4.30;99.90;;;;;;5031454;28;20055;-65
2022/01/28 04:26:44;;;;;;;3.35;1.13;;;4.30;99.90;;;;;;5032024;28;20025;-65
2022/01/28 04:29:11;;;;;;;1.10;1.05;;;4.20;99.90;;;;;;5031555;28;20029;-65
2022/01/28 04:31:42;;;;;;;3.15;1.70;;;4.20;99.90;;;;;;5030711;28;20037;-65
2022/01/28 04:34:08;;;;;;;;;;;4.10;99.90;;;;;;5029641;28;20063;-65
2022/01/28 04:36:38;;;;;;;0.80;0.80;;;4.00;99.90;;;;;;5030992;28;20420;-65
2022/01/28 04:39:15;;;;;;;11.85;1.95;;;4.10;99.90;;;;;;5025125;28;20021;-64
2022/01/28 04:41:57;;;;;;;2.95;1.60;;;4.10;99.90;;;;;;5030065;28;20036;-64
2022/01/28 04:44:33;;;;;;;5.85;2.70;;;4.20;99.90;;;;;;5030887;28;20488;-64
2022/01/28 04:47:06;;;;;;;12.93;1.60;;;4.20;99.90;;;;;;5027735;28;20029;-65
2022/01/28 04:50:11;;;;;;;1.60;1.17;;;4.20;99.90;;;;;;5030554;28;20064;-65
2022/01/28 05:00:22;;;;;;;1.35;0.93;;;4.30;99.90;;;;;;5029088;28;20584;-65
2022/01/28 05:03:05;;;;;;;2.75;1.65;;;4.30;99.90;;;;;;5029213;28;20105;-65
2022/01/28 05:06:05;;;;;;;6.53;1.75;;;4.20;99.90;;;;;;5027496;28;20021;-65
2022/01/28 05:14:42;;;;;;;0.70;0.70;;;4.20;99.90;;;;;;5025173;28;20417;-65
2022/01/28 05:27:48;;;;;;;2.95;0.95;;;4.20;99.90;;;;;;5025784;28;20026;-65
2022/01/28 05:30:14;;;;;;;2.45;1.27;;;4.20;99.90;;;;;;5027365;28;20041;-66
2022/01/28 05:32:40;;;;;;;5.30;1.70;;;4.20;99.90;;;;;;5012445;28;20056;-68
2022/01/28 05:35:06;;;;;;;7.50;1.83;;;4.20;99.90;;;;;;5029312;28;20033;-66
2022/01/28 05:37:31;;;;;;;5.68;0.85;;;4.20;99.90;;;;;;5023198;28;20294;-66
2022/01/28 05:39:57;;;;;;;1.70;1.05;;;4.20;99.90;;;;;;5023634;28;20020;-66
2022/01/28 05:42:23;;;;;;;6.53;1.60;;;4.20;99.90;;;;;;5028096;28;20428;-66
2022/01/28 05:44:48;;;;;;;3.33;1.00;;;4.20;99.90;;;;;;5029385;28;20026;-66
2022/01/28 05:47:16;;;;;;;1.27;1.20;;;4.20;99.90;;;;;;5030598;28;20634;-66
2022/01/28 05:49:43;;;;;;;28.05;1.88;;;4.20;99.90;;;;;;5030529;28;20025;-66
2022/01/28 05:52:09;;;;;;;9.95;2.05;;;4.20;99.90;;;;;;5030349;28;20068;-66
2022/01/28 05:54:35;;;;;;;3.97;1.38;;;4.20;99.90;;;;;;5028453;28;20033;-66
2022/01/28 05:57:01;;;;;;;5.05;1.67;;;4.10;99.90;;;;;;5025850;28;20133;-66
2022/01/28 05:59:27;;;;;;;1.75;1.17;;;4.10;99.90;;;;;;5029912;28;20022;-66
2022/01/28 06:01:53;;;;;;;2.03;0.90;;;4.20;99.90;;;;;;5027334;28;20405;-66
2022/01/28 06:04:21;;;;;;;3.17;1.42;;;4.20;99.90;;;;;;5029948;28;20018;-64
2022/01/28 06:06:47;;;;;;;0.93;0.77;;;4.20;99.90;;;;;;5030053;28;20022;-64
2022/01/28 06:09:12;;;;;;;11.90;1.80;;;4.20;99.90;;;;;;5028429;28;20401;-64
2022/01/28 06:11:38;;;;;;;2.47;1.00;;;4.20;99.90;;;;;;5029173;28;20037;-64
2022/01/28 06:14:04;;;;;;;3.05;1.77;;;4.20;99.90;;;;;;5029249;28;20013;-64
2022/01/28 06:16:30;;;;;;;9.57;1.77;;;4.20;99.90;;;;;;5029857;28;20059;-64
2022/01/28 06:18:55;;;;;;;0.88;0.88;;;4.10;99.90;;;;;;5030158;28;20025;-64
2022/01/28 06:21:21;;;;;;;7.70;2.38;;;4.10;99.90;;;;;;5030697;28;20029;-66
2022/01/28 06:23:47;;;;;;;1.17;1.02;;;4.10;99.90;;;;;;5029787;28;20025;-66
2022/01/28 06:26:12;;;;;;;6.45;3.13;;;4.20;99.90;;;;;;5025836;28;20466;-66
2022/01/28 06:28:38;;;;;;;1.75;0.93;;;4.20;99.90;;;;;;5027143;28;20025;-64
2022/01/28 06:31:04;;;;;;;1.05;1.00;;;4.20;99.90;;;;;;5030120;28;20125;-64
2022/01/28 06:33:29;;;;;;;18.17;1.48;;;4.20;99.90;;;;;;5028869;28;20166;-65
2022/01/28 06:35:55;;;;;;;1.20;1.10;;;4.10;99.90;;;;;;5029762;28;20033;-65
2022/01/28 06:38:21;;;;;;;0.80;0.80;;;4.10;99.90;;;;;;5027673;28;20028;-65
2022/01/28 06:40:48;;;;;;;3.35;1.92;;;4.20;99.90;;;;;;5027676;28;20021;-65
2022/01/28 06:43:15;;;;;;;1.13;0.80;;;4.20;99.90;;;;;;5029130;28;20686;-65
2022/01/28 06:45:42;;;;;;;0.90;0.80;;;4.20;99.90;;;;;;5028418;28;20022;-65
2022/01/28 06:48:12;;;;;;;1.52;1.17;;;4.20;99.90;;;;;;5029891;28;20094;-65
2022/01/28 06:50:38;;;;;;;7.03;1.00;;;4.20;99.90;;;;;;5027839;28;20493;-65
2022/01/28 06:53:05;;;;;;;1.45;1.13;;;4.20;99.90;;;;;;5029435;28;20053;-65
2022/01/28 06:55:30;;;;;;;0.90;0.90;;;4.20;99.90;;;;;;5027013;28;20100;-64
2022/01/28 06:57:56;;;;;;;3.38;1.52;;;4.20;99.90;;;;;;5028924;28;20517;-65
2022/01/28 07:00:22;;;;;;;3.90;2.08;;;4.20;99.90;;;;;;5028624;28;20029;-64
2022/01/28 07:02:50;;;;;;;1.95;1.10;;;4.20;99.90;;;;;;5027475;28;20492;-65
2022/01/28 07:05:16;;;;;;;8.85;1.67;;;4.20;99.90;;;;;;5028869;28;20067;-65
2022/01/28 07:07:41;;;;;;;1.00;1.00;;;4.20;99.90;;;;;;5027495;28;20060;-65
2022/01/28 07:10:08;;;;;;;1.23;0.98;;;4.20;99.90;;;;;;5027464;28;20056;-64
2022/01/28 07:12:33;;;;;;;1.65;1.13;;;4.20;99.90;;;;;;5028169;28;20033;-64
2022/01/28 07:14:59;;;;;;;1.75;1.00;;;4.20;99.90;;;;;;5028158;28;20024;-65
2022/01/28 07:17:24;;;;;;;1.90;1.23;;;4.20;99.90;;;;;;5028005;28;20121;-64
2022/01/28 07:19:50;;;;;;;4.22;1.65;;;4.20;99.90;;;;;;5029020;28;20037;-64
2022/01/28 07:22:16;;;;;;;4.07;1.13;;;4.20;99.90;;;;;;5026116;28;20037;-65
2022/01/28 07:24:42;;;;;;;7.53;1.38;;;4.10;99.90;;;;;;5028344;28;20478;-65
2022/01/28 07:27:08;;;;;;;1.25;1.02;;;4.00;99.90;;;;;;5022879;28;20080;-65
2022/01/28 07:29:34;;;;;;;11.10;1.02;;;4.00;99.90;;;;;;5025976;28;20037;-65
2022/01/28 07:32:00;;;;;;;2.00;1.10;;;4.00;99.90;;;;;;5026029;28;20049;-65
2022/01/28 07:34:26;;;;;;;0.73;0.73;;;4.10;99.90;;;;;;5026583;28;20469;-65
2022/01/28 07:36:52;;;;;;;1.67;1.17;;;4.00;99.90;;;;;;5029402;28;20100;-65
2022/01/28 07:39:18;;;;;;;2.40;1.88;;;4.10;99.90;;;;;;5026480;28;20160;-65
2022/01/28 07:41:44;;;;;;;1.45;1.15;;;4.10;99.90;;;;;;5020631;28;20018;-65
2022/01/28 07:44:10;;;;;;;12.23;1.80;;;4.10;99.90;;;;;;5017958;28;20025;-65
2022/01/28 07:46:36;;;;;;;0.80;0.80;;;4.20;99.90;;;;;;5021540;28;21064;-65
2022/01/28 07:49:03;;;;;;;4.60;1.88;;;4.20;99.90;;;;;;5018348;28;20064;-65
2022/01/28 07:51:29;;;;;;;4.32;1.60;;;4.20;99.90;;;;;;5016264;28;20029;-65
2022/01/28 07:53:55;;;;;;;2.60;1.13;;;4.20;99.90;;;;;;5025155;28;20026;-65
2022/01/28 07:56:22;;;;;;;2.33;1.17;;;4.30;99.90;;;;;;5026745;28;20057;-65
2022/01/28 07:58:48;;;;;;;4.30;1.70;;;4.30;99.90;;;;;;5026087;28;20029;-65
2022/01/28 08:01:13;;;;;;;1.20;1.00;;;4.30;99.90;;;;;;5020838;28;20030;-65
2022/01/28 08:03:39;;;;;;;1.85;1.33;;;4.30;99.90;;;;;;5025835;28;20041;-65
2022/01/28 08:06:05;;;;;;;2.03;1.45;;;4.30;99.90;;;;;;5021593;28;20065;-65
2022/01/28 08:08:30;;;;;;;1.70;1.15;;;4.30;99.90;;;;;;5022585;28;20033;-65
2022/01/28 08:10:56;;;;;;;2.25;1.13;;;4.30;99.90;;;;;;5026602;28;20061;-65
2022/01/28 08:13:22;;;;;;;1.23;0.95;;;4.40;99.90;;;;;;5025038;28;20045;-65
2022/01/28 08:15:48;;;;;;;5.47;2.47;;;4.40;99.90;;;;;;5026553;28;20049;-65
2022/01/28 08:18:14;;;;;;;2.13;1.38;;;4.40;99.90;;;;;;5026730;28;20021;-65
2022/01/28 08:20:39;;;;;;;4.97;1.92;;;4.40;99.90;;;;;;5027062;28;20476;-65
2022/01/28 08:23:05;;;;;;;0.93;0.93;;;4.50;99.90;;;;;;5026632;28;20104;-64
2022/01/28 08:25:33;;;;;;;4.05;1.50;;;4.30;99.90;;;;;;5022014;28;20144;-64
2022/01/28 08:27:59;;;;;;;5.15;1.13;;;4.50;99.90;;;;;;5028328;28;20438;-65
2022/01/28 08:30:26;;;;;;;3.55;1.65;;;4.50;99.90;;;;;;5024174;28;20116;-65
2022/01/28 08:32:52;;;;;;;1.58;1.13;;;4.50;99.90;;;;;;5026111;28;20049;-65
2022/01/28 08:35:28;;;;;;;4.15;1.25;;;4.60;99.90;;;;;;5023575;28;20104;-65
2022/01/28 08:37:54;;;;;;;0.70;0.70;;;4.60;99.90;;;;;;5023761;28;20021;-64
2022/01/28 08:40:20;;;;;;;10.88;1.80;;;4.60;99.90;;;;;;5026675;28;20029;-64
2022/01/28 08:42:45;;;;;;;1.38;1.10;;;4.70;99.90;;;;;;5022009;28;20468;-65
2022/01/28 08:45:11;;;;;;;2.08;1.30;;;4.70;99.90;;;;;;5016148;28;20041;-65
2022/01/28 08:47:37;;;;;;;1.80;0.95;;;4.70;99.90;;;;;;5015199;28;20038;-65
2022/01/28 08:50:03;;;;;;;2.67;1.27;;;4.70;99.90;;;;;;5016690;28;20030;-65
2022/01/28 08:52:29;;;;;;;2.35;1.17;;;4.70;99.90;;;;;;5012886;28;20061;-64
2022/01/28 08:54:54;;;;;;;1.58;0.95;;;4.80;99.90;;;;;;5017899;28;20068;-65
2022/01/28 08:57:20;;;;;;;3.90;1.75;;;4.90;99.90;;;;;;5017743;28;20463;-65
2022/01/28 08:59:46;;;;;;;5.90;1.55;;;5.00;99.90;;;;;;5012368;28;20084;-65
2022/01/28 09:02:11;;;;;;;5.15;1.25;;;5.00;99.90;;;;;;5015704;28;20125;-65
2022/01/28 09:04:37;;;;;;;2.92;1.63;;;5.00;99.90;;;;;;5016500;28;20550;-65
2022/01/28 09:07:03;;;;;;;2.78;1.17;;;5.00;99.90;;;;;;5015115;28;20041;-65
2022/01/28 09:09:29;;;;;;;10.85;2.47;;;4.90;99.90;;;;;;5013127;28;20030;-65
2022/01/28 09:14:24;;;;;;;1.92;1.10;;;5.30;99.90;;;;;;5015345;28;20049;-65
2022/01/28 09:16:50;;;;;;;1.85;1.20;;;5.50;99.90;;;;;;5016412;28;20052;-65
2022/01/28 09:19:15;;;;;;;3.33;1.30;;;5.70;99.90;;;;;;5015138;28;20025;-65
2022/01/28 09:21:41;;;;;;;2.10;1.42;;;5.60;99.90;;;;;;5018369;28;20033;-65
2022/01/28 09:24:07;;;;;;;3.22;1.88;;;5.60;99.90;;;;;;5020529;28;20034;-65
2022/01/28 09:26:33;;;;;;;2.33;1.42;;;6.10;99.90;;;;;;5017010;28;20034;-65
2022/01/28 09:28:58;;;;;;;2.40;1.02;;;6.10;99.90;;;;;;5012511;28;20385;-65
2022/01/28 09:31:24;;;;;;;5.15;2.15;;;6.00;99.90;;;;;;5017990;28;20032;-65
2022/01/28 09:33:50;;;;;;;4.80;2.03;;;5.80;99.90;;;;;;5016802;28;20034;-65
2022/01/28 09:36:15;;;;;;;27.00;1.23;;;6.30;99.90;;;;;;5022968;28;20040;-65
2022/01/28 09:38:41;;;;;;;6.68;1.25;;;6.00;99.90;;;;;;5019154;28;20036;-65
2022/01/28 09:41:08;;;;;;;18.67;1.90;;;5.90;99.90;;;;;;5019441;28;20645;-65
2022/01/28 09:43:34;;;;;;;9.48;1.13;;;5.70;99.90;;;;;;5012239;28;20073;-65
2022/01/28 09:46:02;;;;;;;1.48;0.90;;;6.10;99.90;;;;;;5021298;28;20453;-65
2022/01/28 09:48:28;;;;;;;2.45;1.00;;;6.40;99.90;;;;;;5016881;28;20072;-65
2022/01/28 09:50:58;;;;;;;9.18;1.65;;;6.90;99.90;;;;;;5012555;28;20049;-65
2022/01/28 09:53:24;;;;;;;2.55;1.02;;;7.20;99.90;;;;;;5015536;28;20087;-65
2022/01/28 09:55:50;;;;;;;0.73;0.70;;;7.30;99.90;;;;;;5017474;28;20025;-65
2022/01/28 09:58:16;;;;;;;2.50;1.00;;;7.20;99.90;;;;;;5011765;28;20425;-66
2022/01/28 10:00:42;;;;;;;17.02;1.90;;;7.10;99.90;;;;;;5014798;28;20022;-65
2022/01/28 10:03:10;;;;;;;1.33;1.00;;;7.30;99.90;;;;;;5014907;28;20034;-65
2022/01/28 10:05:39;;;;;;;1.50;0.90;;;7.50;99.90;;;;;;5014479;28;20107;-66
2022/01/28 10:08:15;;;;;;;2.00;1.00;;;7.70;99.90;;;;;;5015834;28;20775;-65
2022/01/28 10:10:45;;;;;;;2.53;1.50;;;7.60;99.90;;;;;;5015297;28;20065;-65
2022/01/28 10:13:20;;;;;;;0.75;0.75;;;7.70;99.90;;;;;;5016116;28;20124;-65
2022/01/28 10:15:59;;;;;;;2.75;1.15;;;7.80;99.90;;;;;;5013128;28;20040;-65
2022/01/28 10:19:00;;;;;;;1.20;0.82;;;8.00;99.90;;;;;;5011099;28;20029;-65
2022/01/28 10:21:39;;;;;;;15.73;1.25;;;7.70;99.90;;;;;;5013560;28;20749;-65
2022/01/28 10:24:25;;;;;;;0.60;0.60;;;7.40;99.90;;;;;;5015302;28;20033;-65
2022/01/28 10:26:59;;;;;;;1.30;0.82;;;7.70;99.90;;;;;;5010225;28;20033;-67
2022/01/28 10:29:26;;;;;;;6.15;1.58;;;7.40;99.90;;;;;;5014455;28;20051;-65
2022/01/28 10:31:57;;;;;;;7.13;1.40;;;7.30;99.90;;;;;;5021619;28;20053;-65
2022/01/28 10:34:25;;;;;;;3.58;1.48;;;6.70;99.90;;;;;;5017814;28;20030;-65
2022/01/28 10:37:05;;;;;;;1.95;0.95;;;6.70;99.90;;;;;;5019644;28;20037;-66
2022/01/28 10:39:30;;;;;;;2.15;1.13;;;6.90;99.90;;;;;;5017556;28;20022;-65
2022/01/28 10:41:58;;;;;;;3.30;0.80;;;7.50;99.90;;;;;;5022826;28;20776;-65
2022/01/28 10:44:26;;;;;;;6.75;1.30;;;7.80;99.90;;;;;;5021573;28;20798;-65
2022/01/28 10:47:03;;;;;;;5.57;1.02;;;7.90;99.90;;;;;;5013270;28;20418;-65
2022/01/28 10:49:36;;;;;;;6.60;1.77;;;7.70;99.90;;;;;;5019974;28;20029;-65
2022/01/28 10:52:05;;;;;;;3.65;1.00;;;7.50;99.90;;;;;;5019002;28;20120;-65
2022/01/28 10:54:30;;;;;;;1.27;0.73;;;7.60;99.90;;;;;;5017617;28;20033;-66
2022/01/28 10:56:58;;;;;;;2.50;1.13;;;7.50;99.90;;;;;;5020343;28;20026;-66
2022/01/28 10:59:37;;;;;;;2.20;1.02;;;7.30;99.90;;;;;;5016990;28;20029;-66
2022/01/28 11:02:04;;;;;;;2.67;0.93;;;7.60;99.90;;;;;;5018459;28;20056;-66
2022/01/28 11:04:30;;;;;;;4.32;1.50;;;7.60;99.90;;;;;;5015684;28;20045;-65
2022/01/28 11:06:58;;;;;;;1.63;1.00;;;7.00;99.90;;;;;;5013427;28;20116;-65
2022/01/28 11:09:24;;;;;;;4.15;1.00;;;6.80;99.90;;;;;;5010904;28;20034;-65
2022/01/28 11:11:51;;;;;;;2.95;1.67;;;6.60;99.90;;;;;;5019687;28;20033;-65
2022/01/28 11:14:18;;;;;;;5.65;1.83;;;6.60;99.90;;;;;;5020605;28;20540;-65
2022/01/28 11:16:44;;;;;;;3.53;1.65;;;6.80;99.90;;;;;;5015243;28;20069;-65
2022/01/28 11:19:14;;;;;;;6.93;1.30;;;7.00;99.90;;;;;;5022871;28;20083;-66
2022/01/28 11:22:08;;;;;;;1.17;0.82;;;7.30;99.90;;;;;;5021296;28;20627;-65
2022/01/28 11:24:50;;;;;;;10.80;1.10;;;7.10;99.90;;;;;;5023989;28;20017;-66
2022/01/28 11:27:33;;;;;;;7.38;1.42;;;7.10;99.90;;;;;;5020982;28;20378;-66
2022/01/28 11:30:25;;;;;;;4.28;1.23;;;7.70;99.90;;;;;;5021907;28;20405;-66
2022/01/28 11:33:02;;;;;;;2.00;1.00;;;8.10;99.90;;;;;;5027329;28;20050;-66
2022/01/28 11:35:40;;;;;;;0.85;0.70;;;8.10;99.90;;;;;;5028083;28;20088;-65
2022/01/28 11:38:24;;;;;;;0.70;0.70;;;8.00;99.90;;;;;;5025909;28;20025;-65
2022/01/28 11:40:51;;;;;;;2.80;0.98;;;8.20;99.90;;;;;;5026505;28;20032;-65
2022/01/28 11:43:22;;;;;;;0.90;0.73;;;9.50;99.90;;;;;;5026915;28;20034;-66
2022/01/28 11:46:04;;;;;;;3.45;1.23;;;10.00;99.90;;;;;;5027226;28;20030;-66
2022/01/28 11:48:52;;;;;;;2.42;1.20;;;9.90;99.90;;;;;;5023778;28;20072;-66
2022/01/28 11:51:35;;;;;;;0.50;0.50;;;10.70;99.90;;;;;;5023060;28;20064;-66
2022/01/28 11:54:04;;;;;;;5.55;1.30;;;10.50;99.90;;;;;;5027870;28;20115;-65
2022/01/28 11:56:30;;;;;;;3.25;1.13;;;9.20;99.90;;;;;;5021156;28;20029;-65
2022/01/28 11:59:01;;;;;;;2.28;1.20;;;8.00;99.90;;;;;;5028487;28;20084;-65
2022/01/28 12:01:36;;;;;;;11.23;1.08;;;7.90;99.90;;;;;;5024583;28;20033;-65
2022/01/28 12:04:23;;;;;;;23.27;1.83;;;7.70;99.90;;;;;;5023969;28;20044;-65
2022/01/28 12:07:09;;;;;;;11.95;2.72;;;7.60;99.90;;;;;;5021205;28;20033;-65
2022/01/28 12:09:37;;;;;;;6.97;2.45;;;7.90;99.90;;;;;;5037709;28;20462;-66
2022/01/28 12:12:05;;;;;;;15.10;1.13;;;8.00;99.90;;;;;;5025543;28;20048;-65
2022/01/28 12:14:50;;;;;;;4.95;1.35;;;7.70;99.90;;;;;;5025837;28;20021;-65
2022/01/28 12:17:31;;;;;;;3.60;1.77;;;7.40;99.90;;;;;;5018516;28;20026;-65
2022/01/28 12:20:15;;;;;;;1.67;0.80;;;7.10;99.90;;;;;;5035523;28;20030;-65
2022/01/28 12:22:59;;;;;;;3.95;1.13;;;7.10;99.90;;;;;;5026700;28;20037;-65
2022/01/28 12:25:43;;;;;;;1.02;0.93;;;7.30;99.90;;;;;;5022765;28;20033;-66
2022/01/28 12:28:31;;;;;;;8.48;1.20;;;8.10;99.90;;;;;;5021660;28;20053;-65
2022/01/28 12:31:07;;;;;;;0.77;0.77;;;8.20;99.90;;;;;;5017273;28;20528;-65
2022/01/28 12:33:39;;;;;;;7.57;1.27;;;8.10;99.90;;;;;;5020798;28;20450;-65
2022/01/28 12:36:11;;;;;;;1.73;1.25;;;8.80;99.90;;;;;;5025813;28;20028;-65
2022/01/28 12:38:43;;;;;;;9.27;2.53;;;10.40;99.90;;;;;;5015031;28;20099;-65
2022/01/28 12:41:14;;;;;;;9.55;1.58;;;10.90;99.90;;;;;;5024032;28;20022;-65
2022/01/28 12:43:40;;;;;;;3.92;1.08;;;10.40;99.90;;;;;;5021010;28;20041;-65
2022/01/28 12:46:11;;;;;;;0.70;0.70;;;10.40;99.90;;;;;;5022556;28;20021;-65
2022/01/28 12:48:48;;;;;;;2.00;1.10;;;9.90;99.90;;;;;;5021413;28;20038;-65
2022/01/28 12:51:14;;;;;;;3.88;1.10;;;8.90;99.90;;;;;;5019701;28;20521;-65
2022/01/28 12:53:42;;;;;;;6.75;2.17;;;9.00;99.90;;;;;;5019934;28;20509;-65
2022/01/28 12:56:09;;;;;;;2.15;1.00;;;8.80;99.90;;;;;;5018645;28;20044;-65
2022/01/28 12:58:37;;;;;;;3.75;0.80;;;8.60;99.90;;;;;;5021705;28;20032;-65
2022/01/28 13:01:11;;;;;;;5.78;2.60;;;8.90;99.90;;;;;;5022487;28;20092;-65
2022/01/28 13:04:03;;;;;;;1.15;1.05;;;8.80;99.90;;;;;;5022697;28;20096;-65
2022/01/28 13:08:59;;;;;;;3.03;1.20;;;9.50;99.90;;;;;;5016514;28;20033;-65
2022/01/28 13:11:27;;;;;;;2.78;1.00;;;10.00;99.90;;;;;;5023668;28;20034;-65
2022/01/28 13:13:55;;;;;;;1.50;1.00;;;9.70;99.90;;;;;;5022388;28;20029;-65
2022/01/28 13:16:53;;;;;;;10.68;1.63;;;9.20;99.90;;;;;;5021609;28;20032;-65
2022/01/28 13:19:20;;;;;;;2.47;1.27;;;8.20;99.90;;;;;;5001591;28;20037;-65
2022/01/28 13:21:47;;;;;;;3.78;1.63;;;8.20;99.90;;;;;;5025744;28;20101;-65
2022/01/28 13:24:23;;;;;;;3.92;1.30;;;8.10;99.90;;;;;;5025615;28;20025;-65
2022/01/28 13:26:56;;;;;;;0.70;0.60;;;7.80;99.90;;;;;;5021696;28;20018;-65
2022/01/28 13:29:51;;;;;;;2.92;1.08;;;7.70;99.90;;;;;;5024324;28;20048;-65
2022/01/28 13:32:26;;;;;;;5.43;1.25;;;7.70;99.90;;;;;;5017573;28;20054;-65
2022/01/28 13:34:57;;;;;;;3.17;1.38;;;7.70;99.90;;;;;;5020072;28;20040;-65
2022/01/28 13:37:39;;;;;;;11.02;1.70;;;7.60;99.90;;;;;;5024215;28;20096;-65
2022/01/28 13:40:10;;;;;;;0.70;0.70;;;8.10;99.90;;;;;;5029769;28;20018;-65
2022/01/28 13:42:38;;;;;;;1.95;1.63;;;8.50;99.90;;;;;;5028453;28;20029;-65
2022/01/28 13:45:06;;;;;;;3.60;2.28;;;8.30;99.90;;;;;;5028176;28;20112;-65
2022/01/28 13:47:52;;;;;;;9.73;2.33;;;8.90;99.90;;;;;;5028260;28;20037;-65
2022/01/28 13:50:31;;;;;;;1.52;1.10;;;9.70;99.90;;;;;;5027529;28;20523;-65
2022/01/28 13:55:46;;;;;;;8.23;1.38;;;9.40;99.90;;;;;;5024144;28;20033;-65
2022/01/28 13:58:11;;;;;;;0.98;0.75;;;9.10;99.90;;;;;;5028662;28;20516;-65
2022/01/28 14:00:45;;;;;;;6.93;2.70;;;8.60;99.90;;;;;;5023904;28;20128;-65
2022/01/28 14:03:19;;;;;;;2.42;0.73;;;8.10;99.90;;;;;;5022348;28;20108;-65
2022/01/28 14:05:53;;;;;;;3.35;1.35;;;7.90;99.90;;;;;;5027614;28;20112;-65
2022/01/28 14:08:39;;;;;;;1.55;1.23;;;7.80;99.90;;;;;;5022348;28;20038;-65
2022/01/28 14:11:21;;;;;;;2.10;1.10;;;8.20;99.90;;;;;;5020065;28;20036;-65
2022/01/28 14:14:17;;;;;;;3.83;1.85;;;8.50;99.90;;;;;;5029488;28;20505;-65
2022/01/28 14:16:59;;;;;;;4.28;1.77;;;8.10;99.90;;;;;;5025852;28;20018;-65
2022/01/28 14:19:26;;;;;;;0.98;0.73;;;7.80;99.90;;;;;;5028900;28;20385;-65
2022/01/28 14:21:52;;;;;;;7.03;1.30;;;7.60;99.90;;;;;;5028858;28;20018;-65
2022/01/28 14:24:24;;;;;;;2.75;1.52;;;7.50;99.90;;;;;;5026272;28;20022;-65
2022/01/28 14:31:51;;;;;;;1.52;1.40;;;7.30;99.90;;;;;;5028221;28;20761;-65
2022/01/28 14:34:17;;;;;;;5.05;1.95;;;7.40;99.90;;;;;;5030407;28;20680;-65
2022/01/28 14:36:43;;;;;;;3.15;1.50;;;7.40;99.90;;;;;;5028833;28;20367;-65
2022/01/28 14:39:10;;;;;;;1.70;0.88;;;7.50;99.90;;;;;;5027472;28;20032;-65
2022/01/28 14:41:36;;;;;;;1.83;1.35;;;7.50;99.90;;;;;;5029661;28;20025;-65